createdAt,value
2018-02-20T00:00:45.863Z,20.15
2018-02-20T00:03:14.140Z,20.55
2018-02-20T00:05:42.275Z,20.37
2018-02-20T00:08:11.174Z,21.62
2018-02-20T00:10:40.194Z,22.13
2018-02-20T00:13:08.362Z,21.92
2018-02-20T00:15:36.505Z,20.12
2018-02-20T00:18:05.446Z,23.58
2018-02-20T00:20:33.600Z,21.83
2018-02-20T00:23:04.539Z,21.50
2018-02-20T00:25:32.670Z,22.37
2018-02-20T00:28:01.598Z,22.80
2018-02-20T00:30:29.729Z,23.12
2018-02-20T00:32:57.901Z,23.02
2018-02-20T00:35:26.035Z,23.75
2018-02-20T00:37:54.198Z,22.17
2018-02-20T00:40:22.337Z,22.60
2018-02-20T00:42:51.270Z,22.92
2018-02-20T00:45:19.425Z,24.23
2018-02-20T00:47:47.602Z,22.70
2018-02-20T00:50:15.776Z,23.10
2018-02-20T00:52:43.911Z,23.73
2018-02-20T00:55:13.458Z,21.35
2018-02-20T00:57:41.626Z,24.67
2018-02-20T01:00:09.795Z,23.92
2018-02-20T01:02:37.949Z,24.23
2018-02-20T01:05:06.087Z,24.12
2018-02-20T01:07:34.241Z,23.65
2018-02-20T01:10:02.369Z,24.50
2018-02-20T01:12:30.578Z,23.30
2018-02-20T01:14:58.721Z,23.58
2018-02-20T01:17:26.883Z,24.77
2018-02-20T01:19:55.013Z,24.33
2018-02-20T01:22:23.181Z,25.48
2018-02-20T01:24:51.317Z,24.25
2018-02-20T01:27:19.451Z,22.20
2018-02-20T01:29:48.854Z,25.45
2018-02-20T01:32:17.750Z,23.85
2018-02-20T01:34:46.671Z,22.90
2018-02-20T01:37:14.848Z,23.35
2018-02-20T01:39:42.985Z,23.90
2018-02-20T01:42:11.889Z,23.42
2018-02-20T01:44:40.042Z,23.83
2018-02-20T01:47:08.177Z,25.98
2018-02-20T01:49:36.351Z,25.83
2018-02-20T01:52:04.486Z,25.67
2018-02-20T01:54:32.645Z,25.20
2018-02-20T01:57:01.549Z,28.00
2018-02-20T01:59:29.682Z,24.55
2018-02-20T02:01:57.838Z,27.48
2018-02-20T02:04:25.974Z,27.08
2018-02-20T02:06:54.525Z,25.58
2018-02-20T02:09:23.429Z,29.17
2018-02-20T02:11:51.602Z,27.13
2018-02-20T02:14:19.803Z,26.67
2018-02-20T02:16:47.953Z,26.95
2018-02-20T02:19:16.153Z,25.88
2018-02-20T02:21:44.289Z,26.30
2018-02-20T02:24:13.223Z,27.45
2018-02-20T02:26:42.105Z,28.20
2018-02-20T02:29:10.244Z,28.00
2018-02-20T02:31:38.438Z,29.70
2018-02-20T02:34:06.574Z,27.58
2018-02-20T02:36:36.087Z,26.92
2018-02-20T02:39:04.271Z,28.27
2018-02-20T02:41:32.439Z,28.85
2018-02-20T02:44:00.581Z,31.40
2018-02-20T02:46:29.497Z,27.27
2018-02-20T02:48:58.445Z,29.92
2018-02-20T02:51:26.687Z,27.70
2018-02-20T02:53:54.874Z,26.70
2018-02-20T02:56:23.031Z,30.15
2018-02-20T02:58:51.206Z,29.25
2018-02-20T03:01:19.602Z,27.00
2018-02-20T03:03:48.039Z,29.83
2018-02-20T03:06:16.240Z,27.35
2018-02-20T03:08:44.420Z,30.25
2018-02-20T03:11:12.568Z,31.73
2018-02-20T03:13:40.757Z,29.58
2018-02-20T03:16:08.914Z,28.30
2018-02-20T03:18:37.045Z,28.90
2018-02-20T03:21:05.281Z,29.75
2018-02-20T03:23:33.434Z,30.48
2018-02-20T03:26:01.571Z,29.33
2018-02-20T03:28:29.793Z,29.52
2018-02-20T03:30:57.960Z,29.55
2018-02-20T03:33:26.129Z,28.23
2018-02-20T03:35:54.310Z,29.90
2018-02-20T03:38:22.469Z,28.80
2018-02-20T03:40:50.602Z,30.10
2018-02-20T03:43:19.547Z,29.17
2018-02-20T03:45:47.678Z,29.52
2018-02-20T03:48:16.606Z,27.10
2018-02-20T03:50:44.738Z,30.80
2018-02-20T03:53:13.658Z,30.17
2018-02-20T03:55:41.850Z,29.60
2018-02-20T03:58:10.024Z,27.90
2018-02-20T04:00:38.162Z,31.80
2018-02-20T04:03:07.182Z,29.70
2018-02-20T04:05:35.318Z,31.33
2018-02-20T04:08:04.226Z,29.10
2018-02-20T04:10:32.380Z,31.67
2018-02-20T04:13:01.414Z,30.73
2018-02-20T04:15:29.589Z,31.10
2018-02-20T04:17:57.746Z,30.35
2018-02-20T04:20:25.919Z,33.47
2018-02-20T04:22:54.078Z,31.73
2018-02-20T04:25:22.627Z,32.83
2018-02-20T04:27:50.781Z,32.60
2018-02-20T04:30:18.910Z,30.88
2018-02-20T04:32:47.073Z,31.77
2018-02-20T04:35:16.003Z,30.60
2018-02-20T04:37:44.166Z,32.17
2018-02-20T04:40:12.323Z,33.10
2018-02-20T04:42:40.504Z,30.27
2018-02-20T04:45:08.649Z,32.80
2018-02-20T04:47:37.590Z,32.67
2018-02-20T04:50:06.343Z,30.58
2018-02-20T04:52:34.482Z,31.48
2018-02-20T04:55:02.638Z,32.33
2018-02-20T04:57:30.779Z,31.75
2018-02-20T04:59:58.987Z,29.98
2018-02-20T05:02:27.231Z,30.62
2018-02-20T05:04:55.366Z,30.52
2018-02-20T05:07:24.294Z,32.90
2018-02-20T05:09:52.426Z,33.70
2018-02-20T05:12:20.913Z,30.85
2018-02-20T05:14:49.074Z,30.65
2018-02-20T05:17:17.989Z,31.90
2018-02-20T05:19:46.187Z,32.63
2018-02-20T05:22:14.326Z,34.38
2018-02-20T05:24:42.461Z,35.22
2018-02-20T05:27:10.617Z,35.40
2018-02-20T05:29:38.755Z,35.47
2018-02-20T05:32:06.911Z,33.72
2018-02-20T05:34:35.073Z,32.60
2018-02-20T05:37:04.620Z,32.78
2018-02-20T05:39:33.614Z,32.80
2018-02-20T05:42:01.764Z,33.17
2018-02-20T05:44:29.930Z,32.40
2018-02-20T05:46:58.075Z,34.88
2018-02-20T05:49:26.978Z,31.77
2018-02-20T05:51:55.906Z,34.05
2018-02-20T05:54:24.045Z,34.67
2018-02-20T05:56:52.969Z,35.10
2018-02-20T05:59:21.106Z,32.55
2018-02-20T06:01:50.052Z,33.13
2018-02-20T06:04:18.202Z,34.10
2018-02-20T06:06:46.354Z,33.67
2018-02-20T06:09:14.525Z,31.23
2018-02-20T06:11:42.659Z,33.15
2018-02-20T06:14:10.794Z,32.13
2018-02-20T06:16:38.977Z,32.97
2018-02-20T06:19:07.110Z,34.30
2018-02-20T06:21:35.274Z,33.78
2018-02-20T06:24:04.174Z,33.13
2018-02-20T06:26:32.318Z,33.13
2018-02-20T06:29:00.590Z,36.25
2018-02-20T06:31:28.821Z,32.75
2018-02-20T06:33:56.980Z,32.90
2018-02-20T06:36:25.117Z,32.47
2018-02-20T06:38:53.272Z,34.63
2018-02-20T06:41:21.468Z,37.53
2018-02-20T06:43:50.388Z,35.50
2018-02-20T06:46:18.554Z,32.42
2018-02-20T06:48:46.694Z,35.50
2018-02-20T06:51:14.854Z,34.33
2018-02-20T06:53:42.987Z,33.70
2018-02-20T06:56:11.154Z,33.33
2018-02-20T06:58:39.622Z,34.95
2018-02-20T07:01:07.814Z,32.17
2018-02-20T07:03:36.045Z,33.40
2018-02-20T07:06:04.990Z,33.75
2018-02-20T07:08:33.180Z,37.28
2018-02-20T07:11:01.329Z,32.30
2018-02-20T07:13:29.484Z,37.92
2018-02-20T07:15:57.614Z,33.53
2018-02-20T07:18:25.781Z,38.45
2018-02-20T07:20:53.917Z,31.87
2018-02-20T07:23:22.098Z,40.90
2018-02-20T07:25:50.374Z,32.78
2018-02-20T07:28:18.505Z,34.35
2018-02-20T07:30:47.433Z,31.73
2018-02-20T07:33:15.578Z,32.08
2018-02-20T07:35:43.744Z,33.67
2018-02-20T07:38:12.705Z,32.75
2018-02-20T07:40:41.631Z,34.90
2018-02-20T07:43:09.798Z,34.40
2018-02-20T07:45:38.706Z,31.73
2018-02-20T07:48:07.104Z,30.70
2018-02-20T07:50:35.371Z,33.35
2018-02-20T07:53:03.531Z,33.10
2018-02-20T07:55:31.705Z,36.75
2018-02-20T07:57:59.895Z,32.15
2018-02-20T08:00:28.070Z,31.12
2018-02-20T08:02:56.413Z,31.58
2018-02-20T08:05:24.607Z,29.20
2018-02-20T08:07:52.794Z,31.42
2018-02-20T08:10:20.925Z,32.90
2018-02-20T08:12:50.189Z,32.20
2018-02-20T08:15:18.322Z,32.63
2018-02-20T08:17:46.454Z,33.00
2018-02-20T08:20:15.373Z,31.15
2018-02-20T08:22:43.515Z,34.10
2018-02-20T08:25:11.977Z,34.75
2018-02-20T08:27:40.155Z,32.30
2018-02-20T08:30:08.290Z,31.95
2018-02-20T08:32:36.455Z,32.30
2018-02-20T08:35:04.591Z,31.33
2018-02-20T08:37:33.510Z,30.20
2018-02-20T08:40:01.699Z,30.77
2018-02-20T08:42:29.907Z,33.45
2018-02-20T08:44:58.019Z,33.60
2018-02-20T08:47:26.229Z,33.55
2018-02-20T08:49:54.678Z,32.97
2018-02-20T08:52:22.866Z,31.70
2018-02-20T08:54:51.042Z,32.17
2018-02-20T08:57:19.202Z,34.55
2018-02-20T08:59:47.511Z,29.98
2018-02-20T09:02:15.711Z,32.90
2018-02-20T09:04:43.857Z,33.88
2018-02-20T09:07:12.046Z,34.58
2018-02-20T09:09:40.174Z,30.58
2018-02-20T09:12:08.344Z,32.20
2018-02-20T09:14:36.484Z,33.10
2018-02-20T09:17:05.395Z,34.83
2018-02-20T09:19:33.562Z,35.53
2018-02-20T09:22:01.703Z,30.98
2018-02-20T09:24:29.964Z,34.58
2018-02-20T09:26:58.150Z,37.28
2018-02-20T09:29:26.305Z,37.17
2018-02-20T09:31:54.465Z,33.05
2018-02-20T09:34:22.629Z,33.88
2018-02-20T09:36:51.170Z,32.13
2018-02-20T09:39:20.086Z,33.83
2018-02-20T09:41:48.257Z,34.03
2018-02-20T09:44:16.402Z,35.75
2018-02-20T09:46:45.417Z,32.15
2018-02-20T09:49:13.586Z,34.05
2018-02-20T09:51:41.754Z,35.15
2018-02-20T09:54:09.974Z,33.28
2018-02-20T09:56:38.126Z,35.72
2018-02-20T09:59:06.271Z,33.88
2018-02-20T10:01:34.438Z,34.05
2018-02-20T10:04:02.584Z,33.40
2018-02-20T10:06:30.770Z,35.47
2018-02-20T10:08:59.315Z,36.27
2018-02-20T10:11:28.242Z,34.63
2018-02-20T10:13:57.182Z,33.87
2018-02-20T10:16:26.154Z,32.50
2018-02-20T10:18:54.302Z,33.40
2018-02-20T10:21:23.231Z,32.77
2018-02-20T10:23:51.372Z,33.70
2018-02-20T10:26:20.277Z,32.50
2018-02-20T10:28:48.458Z,33.93
2018-02-20T10:31:16.593Z,32.87
2018-02-20T10:33:44.733Z,32.47
2018-02-20T10:36:12.995Z,31.80
2018-02-20T10:38:41.142Z,33.37
2018-02-20T10:41:09.295Z,28.43
2018-02-20T10:43:38.246Z,33.53
2018-02-20T10:46:06.398Z,29.50
2018-02-20T10:48:34.547Z,31.37
2018-02-20T10:51:02.722Z,31.23
2018-02-20T10:53:30.894Z,30.30
2018-02-20T10:55:59.038Z,33.70
2018-02-20T10:58:27.424Z,35.70
2018-02-20T11:00:56.341Z,39.37
2018-02-20T11:03:24.494Z,46.00
2018-02-20T11:05:53.439Z,35.00
2018-02-20T11:08:21.594Z,30.17
2018-02-20T11:10:49.742Z,32.37
2018-02-20T11:13:17.940Z,29.07
2018-02-20T11:15:46.111Z,30.10
2018-02-20T11:18:14.280Z,30.30
2018-02-20T11:20:42.455Z,29.50
2018-02-20T11:23:11.162Z,28.67
2018-02-20T11:25:39.382Z,29.63
2018-02-20T11:28:07.594Z,26.77
2018-02-20T11:30:35.774Z,27.77
2018-02-20T11:33:03.914Z,27.00
2018-02-20T11:35:32.733Z,28.77
2018-02-20T11:38:00.923Z,27.27
2018-02-20T11:40:29.099Z,28.07
2018-02-20T11:42:57.328Z,33.27
2018-02-20T11:45:25.474Z,42.13
2018-02-20T11:47:54.431Z,33.90
2018-02-20T11:50:23.111Z,28.33
2018-02-20T11:52:51.888Z,27.93
2018-02-20T11:55:20.063Z,25.93
2018-02-20T11:57:48.323Z,28.60
2018-02-20T12:00:16.845Z,28.63
2018-02-20T12:02:44.989Z,26.60
2018-02-20T12:05:13.150Z,27.87
2018-02-20T12:07:41.293Z,26.23
2018-02-20T12:10:10.290Z,29.27
2018-02-20T12:12:38.462Z,28.23
2018-02-20T12:15:06.605Z,34.67
2018-02-20T12:17:34.776Z,27.80
2018-02-20T12:20:03.288Z,29.47
2018-02-20T12:22:32.315Z,31.50
2018-02-20T12:25:00.623Z,27.93
2018-02-20T12:27:28.794Z,27.50
2018-02-20T12:29:57.034Z,26.20
2018-02-20T12:32:25.414Z,26.10
2018-02-20T12:34:54.176Z,26.27
2018-02-20T12:37:22.370Z,26.00
2018-02-20T12:39:50.513Z,26.10
2018-02-20T12:42:19.413Z,25.40
2018-02-20T12:44:47.606Z,24.60
2018-02-20T12:47:15.747Z,26.20
2018-02-20T12:49:44.649Z,24.97
2018-02-20T12:52:12.834Z,23.63
2018-02-20T12:54:41.010Z,24.90
2018-02-20T12:57:09.199Z,23.63
2018-02-20T12:59:37.367Z,26.43
2018-02-20T13:02:05.526Z,31.60
2018-02-20T13:04:33.727Z,30.03
2018-02-20T13:07:02.474Z,27.97
2018-02-20T13:09:30.645Z,25.67
2018-02-20T13:11:59.487Z,24.60
2018-02-20T13:14:27.640Z,27.63
2018-02-20T13:16:55.819Z,23.80
2018-02-20T13:19:23.959Z,22.80
2018-02-20T13:21:52.101Z,23.03
2018-02-20T13:24:21.033Z,24.90
2018-02-20T13:26:49.175Z,23.67
2018-02-20T13:29:18.098Z,24.23
2018-02-20T13:31:46.263Z,23.57
2018-02-20T13:34:14.431Z,22.87
2018-02-20T13:36:42.578Z,23.73
2018-02-20T13:39:11.530Z,23.30
2018-02-20T13:41:40.098Z,24.50
2018-02-20T13:44:08.271Z,22.60
2018-02-20T13:46:39.261Z,23.77
2018-02-20T13:49:08.194Z,23.40
2018-02-20T13:51:36.371Z,22.87
2018-02-20T13:54:04.553Z,23.73
2018-02-20T13:56:32.723Z,23.97
2018-02-20T13:59:00.883Z,24.20
2018-02-20T14:01:29.048Z,22.30
2018-02-20T14:03:57.191Z,21.37
2018-02-20T14:06:26.090Z,22.57
2018-02-20T14:08:54.295Z,21.40
2018-02-20T14:11:22.436Z,20.67
2018-02-20T14:13:50.581Z,20.73
2018-02-20T14:16:18.747Z,19.77
2018-02-20T14:18:47.030Z,20.50
2018-02-20T14:21:16.038Z,22.10
2018-02-20T14:23:44.966Z,21.37
2018-02-20T14:26:13.138Z,20.70
2018-02-20T14:28:41.286Z,21.90
2018-02-20T14:31:09.435Z,27.47
2018-02-20T14:33:38.375Z,22.03
2018-02-20T14:36:06.526Z,22.43
2018-02-20T14:38:34.718Z,21.73
2018-02-20T14:41:02.905Z,20.53
2018-02-20T14:43:31.078Z,20.57
2018-02-20T14:45:59.251Z,20.77
2018-02-20T14:48:27.390Z,21.40
2018-02-20T14:50:55.542Z,20.27
2018-02-20T14:53:24.482Z,19.90
2018-02-20T14:55:52.659Z,20.23
2018-02-20T14:58:20.800Z,19.60
2018-02-20T15:00:48.943Z,19.57
2018-02-20T15:03:17.111Z,20.67
2018-02-20T15:05:45.338Z,18.40
2018-02-20T15:08:13.618Z,19.13
2018-02-20T15:10:41.818Z,17.80
2018-02-20T15:13:10.883Z,18.07
2018-02-20T15:15:39.051Z,18.57
2018-02-20T15:18:07.322Z,18.07
2018-02-20T15:20:35.506Z,17.87
2018-02-20T15:23:04.102Z,17.13
2018-02-20T15:25:33.713Z,16.57
2018-02-20T15:28:01.866Z,16.70
2018-02-20T15:30:30.031Z,16.10
2018-02-20T15:32:58.176Z,14.60
2018-02-20T15:35:27.115Z,14.60
2018-02-20T15:37:55.253Z,13.23
2018-02-20T15:40:23.391Z,14.93
2018-02-20T15:42:51.573Z,13.80
2018-02-20T15:45:20.506Z,13.80
2018-02-20T15:47:48.678Z,15.67
2018-02-20T15:50:16.826Z,13.57
2018-02-20T15:52:44.990Z,14.77
2018-02-20T15:55:13.931Z,15.93
2018-02-20T15:57:42.193Z,14.60
2018-02-20T16:00:10.359Z,14.43
2018-02-20T16:02:38.544Z,14.10
2018-02-20T16:05:06.719Z,14.20
2018-02-20T16:07:34.871Z,13.87
2018-02-20T16:10:03.008Z,12.90
2018-02-20T16:12:31.974Z,13.00
2018-02-20T16:15:00.189Z,12.90
2018-02-20T16:17:29.094Z,12.30
2018-02-20T16:19:57.266Z,12.83
2018-02-20T16:22:25.442Z,12.77
2018-02-20T16:24:53.631Z,12.50
2018-02-20T16:27:21.810Z,12.55
2018-02-20T16:29:50.910Z,12.50
2018-02-20T16:32:19.079Z,12.35
2018-02-20T16:34:47.225Z,13.30
2018-02-20T16:37:15.386Z,12.10
2018-02-20T16:39:43.552Z,13.10
2018-02-20T16:42:11.863Z,11.43
2018-02-20T16:44:39.998Z,12.40
2018-02-20T16:47:08.940Z,11.48
2018-02-20T16:49:37.116Z,12.20
2018-02-20T16:52:05.276Z,11.90
2018-02-20T16:54:33.418Z,11.45
2018-02-20T16:57:01.562Z,13.02
2018-02-20T16:59:29.787Z,12.40
2018-02-20T17:01:57.930Z,11.93
2018-02-20T17:04:26.848Z,10.70
2018-02-20T17:06:55.003Z,12.05
2018-02-20T17:09:23.290Z,11.00
2018-02-20T17:11:51.426Z,11.57
2018-02-20T17:14:20.362Z,11.65
2018-02-20T17:16:48.493Z,12.88
2018-02-20T17:19:17.440Z,12.57
2018-02-20T17:21:46.374Z,11.77
2018-02-20T17:24:15.314Z,11.40
2018-02-20T17:26:43.561Z,11.45
2018-02-20T17:29:11.694Z,12.63
2018-02-20T17:31:39.857Z,10.40
2018-02-20T17:34:07.991Z,12.40
2018-02-20T17:36:36.174Z,11.43
2018-02-20T17:39:04.367Z,12.57
2018-02-20T17:41:32.521Z,11.15
2018-02-20T17:44:00.666Z,11.35
2018-02-20T17:46:28.829Z,11.15
2018-02-20T17:48:57.770Z,11.50
2018-02-20T17:51:25.916Z,11.45
2018-02-20T17:53:54.050Z,11.82
2018-02-20T17:56:22.986Z,11.20
2018-02-20T17:58:51.142Z,9.80
2018-02-20T18:01:19.284Z,11.65
2018-02-20T18:03:47.530Z,10.50
2018-02-20T18:06:15.669Z,13.55
2018-02-20T18:08:43.829Z,14.90
2018-02-20T18:11:11.961Z,14.40
2018-02-20T18:13:40.191Z,14.40
2018-02-20T18:16:08.351Z,13.68
2018-02-20T18:18:36.514Z,11.52
2018-02-20T18:21:05.410Z,13.30
2018-02-20T18:23:33.547Z,15.10
2018-02-20T18:26:01.777Z,13.38
2018-02-20T18:28:29.914Z,14.07
2018-02-20T18:30:59.003Z,12.90
2018-02-20T18:33:27.914Z,12.43
2018-02-20T18:35:56.122Z,11.93
2018-02-20T18:38:25.094Z,12.60
2018-02-20T18:40:53.231Z,14.27
2018-02-20T18:43:22.138Z,13.23
2018-02-20T18:45:50.305Z,14.60
2018-02-20T18:48:19.291Z,13.95
2018-02-20T18:50:49.248Z,12.70
2018-02-20T18:53:17.410Z,14.20
2018-02-20T18:55:46.146Z,13.15
2018-02-20T18:58:15.095Z,13.68
2018-02-20T19:00:43.522Z,14.60
2018-02-20T19:03:12.450Z,16.12
2018-02-20T19:05:41.963Z,19.25
2018-02-20T19:08:10.122Z,20.58
2018-02-20T19:10:38.261Z,19.98
2018-02-20T19:13:06.513Z,23.90
2018-02-20T19:15:34.652Z,21.92
2018-02-20T19:18:02.796Z,19.87
2018-02-20T19:20:31.718Z,15.85
2018-02-20T19:22:59.893Z,17.00
2018-02-20T19:25:28.060Z,16.05
2018-02-20T19:27:56.210Z,15.82
2018-02-20T19:30:25.157Z,15.45
2018-02-20T19:32:53.327Z,18.08
2018-02-20T19:35:21.469Z,15.40
2018-02-20T19:37:51.197Z,16.90
2018-02-20T19:40:19.339Z,15.10
2018-02-20T19:42:47.555Z,16.73
2018-02-20T19:45:15.723Z,15.73
2018-02-20T19:47:43.873Z,16.42
2018-02-20T19:50:12.035Z,17.50
2018-02-20T19:52:40.248Z,15.98
2018-02-20T19:55:08.750Z,14.23
2018-02-20T19:57:36.971Z,15.43
2018-02-20T20:00:05.158Z,16.27
2018-02-20T20:02:33.303Z,16.45
2018-02-20T20:05:01.896Z,16.70
2018-02-20T20:07:30.071Z,16.15
2018-02-20T20:09:58.256Z,14.65
2018-02-20T20:12:26.414Z,15.57
2018-02-20T20:14:54.949Z,14.85
2018-02-20T20:17:23.190Z,17.52
2018-02-20T20:19:51.903Z,17.50
2018-02-20T20:22:20.087Z,17.85
2018-02-20T20:24:51.438Z,15.65
2018-02-20T20:27:21.305Z,16.45
2018-02-20T20:29:50.083Z,16.35
2018-02-20T20:32:18.729Z,17.23
2018-02-20T20:34:47.797Z,17.75
2018-02-20T20:37:15.935Z,17.75
2018-02-20T20:39:44.208Z,15.57
2018-02-20T20:42:12.358Z,16.48
2018-02-20T20:44:40.497Z,18.23
2018-02-20T20:47:08.734Z,17.20
2018-02-20T20:49:36.906Z,18.48
2018-02-20T20:52:05.362Z,18.25
2018-02-20T20:54:34.505Z,17.75
2018-02-20T20:57:02.683Z,18.40
2018-02-20T20:59:30.850Z,17.60
2018-02-20T21:01:59.098Z,20.20
2018-02-20T21:04:27.234Z,19.10
2018-02-20T21:06:56.156Z,18.05
2018-02-20T21:09:24.318Z,20.77
2018-02-20T21:11:52.454Z,21.02
2018-02-20T21:14:20.680Z,21.50
2018-02-20T21:16:48.845Z,19.73
2018-02-20T21:19:17.002Z,21.42
2018-02-20T21:21:45.173Z,19.73
2018-02-20T21:24:13.535Z,20.12
2018-02-20T21:26:42.462Z,21.10
2018-02-20T21:29:10.634Z,18.58
2018-02-20T21:31:38.798Z,20.65
2018-02-20T21:34:06.939Z,22.45
2018-02-20T21:36:35.876Z,23.10
2018-02-20T21:39:04.024Z,23.15
2018-02-20T21:41:32.221Z,22.67
2018-02-20T21:44:00.353Z,21.60
2018-02-20T21:46:29.274Z,23.50
2018-02-20T21:48:57.434Z,21.67
2018-02-20T21:51:25.566Z,22.65
2018-02-20T21:53:53.744Z,21.85
2018-02-20T21:56:21.914Z,21.58
2018-02-20T21:58:50.866Z,22.25
2018-02-20T22:01:19.026Z,20.95
2018-02-20T22:03:47.190Z,21.73
2018-02-20T22:06:15.391Z,20.83
2018-02-20T22:08:43.505Z,18.75
2018-02-20T22:11:12.410Z,19.42
2018-02-20T22:13:41.329Z,19.60
2018-02-20T22:16:09.503Z,19.67
2018-02-20T22:18:37.666Z,19.58
2018-02-20T22:21:05.851Z,19.10
2018-02-20T22:23:34.029Z,18.73
2018-02-20T22:26:02.192Z,18.60
2018-02-20T22:28:30.820Z,20.00
2018-02-20T22:30:58.994Z,20.55
2018-02-20T22:33:27.136Z,19.80
2018-02-20T22:35:55.265Z,18.80
2018-02-20T22:38:24.215Z,17.35
2018-02-20T22:40:52.355Z,19.20
2018-02-20T22:43:20.494Z,17.92
2018-02-20T22:45:49.417Z,19.33
2018-02-20T22:48:17.565Z,17.33
2018-02-20T22:50:46.514Z,18.27
2018-02-20T22:53:14.645Z,19.50
2018-02-20T22:55:42.777Z,17.50
2018-02-20T22:58:10.955Z,19.35
2018-02-20T23:00:39.096Z,27.75
2018-02-20T23:03:07.253Z,18.62
2018-02-20T23:05:35.410Z,18.37
2018-02-20T23:08:03.566Z,18.73
2018-02-20T23:10:31.700Z,18.35
2018-02-20T23:12:59.858Z,16.85
2018-02-20T23:15:28.031Z,16.92
2018-02-20T23:17:56.168Z,17.90
2018-02-20T23:20:24.338Z,17.27
2018-02-20T23:22:52.482Z,16.52
2018-02-20T23:25:21.386Z,16.85
2018-02-20T23:27:51.133Z,16.77
2018-02-20T23:30:19.286Z,17.08
2018-02-20T23:32:47.426Z,16.73
2018-02-20T23:35:16.352Z,16.58
2018-02-20T23:37:44.518Z,19.35
2018-02-20T23:40:12.650Z,15.63
2018-02-20T23:42:41.802Z,17.85
2018-02-20T23:45:10.059Z,17.52
2018-02-20T23:47:38.202Z,17.00
2018-02-20T23:50:07.109Z,16.75
2018-02-20T23:52:36.131Z,15.57
2018-02-20T23:55:04.262Z,16.33
2018-02-20T23:57:32.422Z,17.48
